createdAt,value
2022-12-31T00:01:30.138Z,1.38
2022-12-31T00:03:56.945Z,1.10
2022-12-31T00:06:34.340Z,1.48
2022-12-31T00:09:03.986Z,1.15
2022-12-31T00:11:31.538Z,1.50
2022-12-31T00:13:58.444Z,0.70
2022-12-31T00:16:31.283Z,0.98
2022-12-31T00:18:59.475Z,0.52
2022-12-31T00:21:28.142Z,1.10
2022-12-31T00:23:57.543Z,0.60
2022-12-31T00:26:28.164Z,3.42
2022-12-31T00:28:56.776Z,1.85
2022-12-31T00:31:29.479Z,0.95
2022-12-31T00:33:57.015Z,3.63
2022-12-31T00:36:26.014Z,0.30
2022-12-31T00:38:54.769Z,0.65
2022-12-31T00:41:22.613Z,0.40
2022-12-31T00:43:49.293Z,0.70
2022-12-31T00:46:16.548Z,0.30
2022-12-31T00:48:43.413Z,1.00
2022-12-31T00:51:12.431Z,1.02
2022-12-31T00:53:39.184Z,0.60
2022-12-31T00:56:13.084Z,0.52
2022-12-31T00:58:44.951Z,1.17
2022-12-31T01:01:23.480Z,0.63
2022-12-31T01:03:52.840Z,1.10
2022-12-31T01:06:21.550Z,0.47
2022-12-31T01:08:49.762Z,0.40
2022-12-31T01:11:19.007Z,0.52
2022-12-31T01:13:47.587Z,2.28
2022-12-31T01:16:15.001Z,0.73
2022-12-31T01:18:41.635Z,2.80
2022-12-31T01:21:12.451Z,4.10
2022-12-31T01:23:39.277Z,1.55
2022-12-31T01:26:08.815Z,0.52
2022-12-31T01:28:35.580Z,0.50
2022-12-31T01:31:07.130Z,0.70
2022-12-31T01:33:37.159Z,0.75
2022-12-31T01:36:05.497Z,3.67
2022-12-31T01:38:32.841Z,0.73
2022-12-31T01:41:02.478Z,0.55
2022-12-31T01:43:47.730Z,2.05
2022-12-31T01:46:21.232Z,0.30
2022-12-31T01:48:53.454Z,0.28
2022-12-31T01:53:48.471Z,0.88
2022-12-31T01:56:18.154Z,0.30
2022-12-31T01:58:47.537Z,1.33
2022-12-31T02:01:21.680Z,1.42
2022-12-31T02:03:50.887Z,0.77
2022-12-31T02:06:23.631Z,5.22
2022-12-31T02:08:50.755Z,0.75
2022-12-31T02:11:27.934Z,0.45
2022-12-31T02:13:58.791Z,1.35
2022-12-31T02:16:36.148Z,5.07
2022-12-31T02:19:21.755Z,2.20
2022-12-31T02:22:14.169Z,3.03
2022-12-31T02:27:35.067Z,1.10
2022-12-31T02:30:15.459Z,0.32
2022-12-31T02:33:05.577Z,1.23
2022-12-31T02:35:49.855Z,0.30
2022-12-31T02:38:32.329Z,3.50
2022-12-31T02:40:59.647Z,1.83
2022-12-31T02:43:29.131Z,2.88
2022-12-31T02:46:18.326Z,1.38
2022-12-31T02:49:07.876Z,0.80
2022-12-31T02:51:44.482Z,0.47
2022-12-31T02:54:22.891Z,0.45
2022-12-31T02:57:00.633Z,0.77
2022-12-31T02:59:56.669Z,1.60
2022-12-31T03:02:27.071Z,2.35
2022-12-31T03:04:55.992Z,6.43
2022-12-31T03:07:28.390Z,0.75
2022-12-31T03:09:57.981Z,0.90
2022-12-31T03:12:46.792Z,2.25
2022-12-31T03:15:23.404Z,0.65
2022-12-31T03:17:57.961Z,2.28
2022-12-31T03:21:02.497Z,2.22
2022-12-31T03:23:33.182Z,0.50
2022-12-31T03:26:01.423Z,0.30
2022-12-31T03:28:30.641Z,0.90
2022-12-31T03:31:02.501Z,0.47
2022-12-31T03:33:54.114Z,2.92
2022-12-31T03:36:20.496Z,0.63
2022-12-31T03:38:52.479Z,1.83
2022-12-31T03:41:19.100Z,3.10
2022-12-31T03:43:45.496Z,0.77
2022-12-31T03:46:11.890Z,0.60
2022-12-31T03:48:40.687Z,4.50
2022-12-31T03:51:10.635Z,0.82
2022-12-31T03:53:36.996Z,0.30
2022-12-31T03:56:03.518Z,0.52
2022-12-31T03:58:30.170Z,3.10
2022-12-31T04:00:56.903Z,4.07
2022-12-31T04:03:30.808Z,6.30
2022-12-31T04:05:57.332Z,0.60
2022-12-31T04:08:27.004Z,3.78
2022-12-31T04:10:53.512Z,0.50
2022-12-31T04:13:22.253Z,2.38
2022-12-31T04:15:52.043Z,0.68
2022-12-31T04:18:21.421Z,0.60
2022-12-31T04:20:47.928Z,1.70
2022-12-31T04:23:14.293Z,2.35
2022-12-31T04:25:43.207Z,1.02
2022-12-31T04:28:12.121Z,4.25
2022-12-31T04:30:38.643Z,3.25
2022-12-31T04:33:07.610Z,4.00
2022-12-31T04:35:36.551Z,1.38
2022-12-31T04:38:03.124Z,1.35
2022-12-31T04:40:29.532Z,0.82
2022-12-31T04:42:56.058Z,0.98
2022-12-31T04:45:22.564Z,3.17
2022-12-31T04:47:49.025Z,3.67
2022-12-31T04:50:17.770Z,0.77
2022-12-31T04:52:47.276Z,0.57
2022-12-31T04:55:16.659Z,0.65
2022-12-31T04:57:43.105Z,0.38
2022-12-31T05:00:10.133Z,1.60
2022-12-31T05:02:36.623Z,1.83
2022-12-31T05:05:03.241Z,1.50
2022-12-31T05:07:32.001Z,3.30
2022-12-31T05:10:00.871Z,3.33
2022-12-31T05:12:27.454Z,0.30
2022-12-31T05:14:56.025Z,0.35
2022-12-31T05:17:22.465Z,1.95
2022-12-31T05:19:51.262Z,4.03
2022-12-31T05:22:29.897Z,4.22
2022-12-31T05:24:58.246Z,2.80
2022-12-31T05:27:25.975Z,1.98
2022-12-31T05:29:52.430Z,0.40
2022-12-31T05:32:18.801Z,0.95
2022-12-31T05:34:45.205Z,0.43
2022-12-31T05:37:14.163Z,0.40
2022-12-31T05:39:40.554Z,0.22
2022-12-31T05:42:06.957Z,2.53
2022-12-31T05:44:35.606Z,0.40
2022-12-31T05:47:02.090Z,3.30
2022-12-31T05:49:28.485Z,0.20
2022-12-31T05:51:54.850Z,0.88
2022-12-31T05:54:21.518Z,0.50
2022-12-31T05:56:47.921Z,6.93
2022-12-31T05:59:14.352Z,4.68
2022-12-31T06:01:41.125Z,0.75
2022-12-31T06:04:07.623Z,0.68
2022-12-31T06:06:34.044Z,0.77
2022-12-31T06:09:00.727Z,2.28
2022-12-31T06:11:27.175Z,1.00
2022-12-31T06:13:53.641Z,0.75
2022-12-31T06:16:20.149Z,4.30
2022-12-31T06:18:50.770Z,0.30
2022-12-31T06:21:18.256Z,0.47
2022-12-31T06:23:44.743Z,1.95
2022-12-31T06:26:11.172Z,1.00
2022-12-31T06:28:37.518Z,1.05
2022-12-31T06:31:06.206Z,0.68
2022-12-31T06:33:33.672Z,0.20
2022-12-31T06:36:02.758Z,0.40
2022-12-31T06:38:31.039Z,1.77
2022-12-31T06:40:57.405Z,0.60
2022-12-31T06:43:23.768Z,0.30
2022-12-31T06:45:52.492Z,0.40
2022-12-31T06:48:18.831Z,0.75
2022-12-31T06:50:45.169Z,0.40
2022-12-31T06:53:13.852Z,4.68
2022-12-31T06:55:43.169Z,4.63
2022-12-31T06:58:15.894Z,0.50
2022-12-31T07:01:14.853Z,2.38
2022-12-31T07:04:04.101Z,0.40
2022-12-31T07:06:43.988Z,0.30
2022-12-31T07:09:21.507Z,0.20
2022-12-31T07:12:03.773Z,1.10
2022-12-31T07:17:02.715Z,0.20
2022-12-31T07:19:36.421Z,2.83
2022-12-31T07:22:05.684Z,0.40
2022-12-31T07:24:32.362Z,0.20
2022-12-31T07:27:05.368Z,3.03
2022-12-31T07:29:42.128Z,3.13
2022-12-31T07:32:48.116Z,0.35
2022-12-31T07:35:35.211Z,0.30
2022-12-31T07:38:26.990Z,0.63
2022-12-31T07:41:16.786Z,0.73
2022-12-31T07:44:14.511Z,0.40
2022-12-31T07:46:53.156Z,3.67
2022-12-31T07:49:23.645Z,0.82
2022-12-31T07:51:53.321Z,0.55
2022-12-31T07:54:20.158Z,3.75
2022-12-31T07:56:47.012Z,1.00
2022-12-31T07:59:37.396Z,0.73
2022-12-31T08:02:14.478Z,0.40
2022-12-31T08:04:59.613Z,1.40
2022-12-31T08:07:28.799Z,0.43
2022-12-31T08:10:02.857Z,1.30
2022-12-31T08:12:37.418Z,1.88
2022-12-31T08:15:12.893Z,2.05
2022-12-31T08:17:44.339Z,3.20
2022-12-31T08:20:20.412Z,0.75
2022-12-31T08:23:20.703Z,0.77
2022-12-31T08:26:08.111Z,0.38
2022-12-31T08:28:56.296Z,2.22
2022-12-31T08:31:27.819Z,0.80
2022-12-31T08:34:08.292Z,0.70
2022-12-31T08:36:43.403Z,0.30
2022-12-31T08:39:28.677Z,2.42
2022-12-31T08:41:58.210Z,3.03
2022-12-31T08:44:36.362Z,0.65
2022-12-31T08:47:02.738Z,1.67
2022-12-31T08:49:34.039Z,0.50
2022-12-31T08:52:01.686Z,0.60
2022-12-31T08:54:29.181Z,0.55
2022-12-31T08:57:21.041Z,0.43
2022-12-31T09:00:02.211Z,0.70
2022-12-31T09:03:02.868Z,2.17
2022-12-31T09:06:14.971Z,0.40
2022-12-31T09:08:52.342Z,2.80
2022-12-31T09:11:33.679Z,1.55
2022-12-31T09:14:40.868Z,0.30
2022-12-31T09:17:28.579Z,5.38
2022-12-31T09:19:55.417Z,0.47
2022-12-31T09:22:22.152Z,0.52
2022-12-31T09:24:51.631Z,2.10
2022-12-31T09:27:28.574Z,1.33
2022-12-31T09:30:04.715Z,1.30
2022-12-31T09:32:45.525Z,1.38
2022-12-31T09:35:36.648Z,3.28
2022-12-31T09:38:19.691Z,0.40
2022-12-31T09:41:00.870Z,1.38
2022-12-31T09:43:49.474Z,0.85
2022-12-31T09:46:18.852Z,0.90
2022-12-31T09:49:16.564Z,4.38
2022-12-31T09:52:21.657Z,0.93
2022-12-31T09:55:06.797Z,0.45
2022-12-31T09:58:08.523Z,1.95
2022-12-31T10:00:44.625Z,0.87
2022-12-31T10:03:35.568Z,6.35
2022-12-31T10:06:32.967Z,2.22
2022-12-31T10:09:08.068Z,1.52
2022-12-31T10:11:43.681Z,0.82
2022-12-31T10:14:47.605Z,0.47
2022-12-31T10:17:39.845Z,0.50
2022-12-31T10:20:24.821Z,0.55
2022-12-31T10:23:28.860Z,1.00
2022-12-31T10:26:03.989Z,2.60
2022-12-31T10:28:53.963Z,0.43
2022-12-31T10:31:57.091Z,1.10
2022-12-31T10:34:34.593Z,1.25
2022-12-31T10:37:11.868Z,0.85
2022-12-31T10:40:04.702Z,1.20
2022-12-31T10:43:03.527Z,0.50
2022-12-31T10:46:05.677Z,0.57
2022-12-31T10:48:58.491Z,2.25
2022-12-31T10:51:27.799Z,0.60
2022-12-31T10:54:21.790Z,2.78
2022-12-31T10:56:54.310Z,1.13
2022-12-31T10:59:36.035Z,3.83
2022-12-31T11:02:29.221Z,1.10
2022-12-31T11:05:30.107Z,3.15
2022-12-31T11:08:12.645Z,2.97
2022-12-31T11:11:01.353Z,0.95
2022-12-31T11:13:58.056Z,1.02
2022-12-31T11:16:44.759Z,0.43
2022-12-31T11:19:21.981Z,0.65
2022-12-31T11:22:00.511Z,0.40
2022-12-31T11:25:04.038Z,1.58
2022-12-31T11:27:52.468Z,0.70
2022-12-31T11:30:25.017Z,1.70
2022-12-31T11:32:57.332Z,3.20
2022-12-31T11:36:10.090Z,5.47
2022-12-31T11:38:43.546Z,11.25
2022-12-31T11:41:42.642Z,2.42
2022-12-31T11:44:23.586Z,1.27
2022-12-31T11:47:08.871Z,1.10
2022-12-31T11:50:03.563Z,4.20
2022-12-31T11:52:46.267Z,0.50
2022-12-31T11:55:37.670Z,0.55
2022-12-31T11:58:17.806Z,4.37
2022-12-31T12:01:15.044Z,0.70
2022-12-31T12:03:43.724Z,2.38
2022-12-31T12:06:16.484Z,2.75
2022-12-31T12:08:44.273Z,0.80
2022-12-31T12:11:23.593Z,1.00
2022-12-31T12:13:52.696Z,1.42
2022-12-31T12:16:23.652Z,1.40
2022-12-31T12:19:02.102Z,0.67
2022-12-31T12:21:28.788Z,1.85
2022-12-31T12:24:19.346Z,1.65
2022-12-31T12:26:48.761Z,0.50
2022-12-31T12:29:15.202Z,1.35
2022-12-31T12:31:41.802Z,2.00
2022-12-31T12:34:30.162Z,6.38
2022-12-31T12:36:56.987Z,2.50
2022-12-31T12:39:25.866Z,3.60
2022-12-31T12:42:01.676Z,2.28
2022-12-31T12:44:28.034Z,3.70
2022-12-31T12:46:55.828Z,0.20
2022-12-31T12:49:26.586Z,1.65
2022-12-31T12:52:14.937Z,1.67
2022-12-31T12:55:00.104Z,1.20
2022-12-31T12:57:40.822Z,1.48
2022-12-31T13:00:20.984Z,1.25
2022-12-31T13:03:05.477Z,0.93
2022-12-31T13:05:58.318Z,4.28
2022-12-31T13:09:00.146Z,3.08
2022-12-31T13:11:39.209Z,1.00
2022-12-31T13:14:31.026Z,1.10
2022-12-31T13:17:16.608Z,0.20
2022-12-31T13:19:59.077Z,1.42
2022-12-31T13:22:51.965Z,0.88
2022-12-31T13:25:39.536Z,0.43
2022-12-31T13:28:12.456Z,1.10
2022-12-31T13:30:49.293Z,1.77
2022-12-31T13:33:31.116Z,0.57
2022-12-31T13:36:01.917Z,0.32
2022-12-31T13:38:51.124Z,0.30
2022-12-31T13:41:24.804Z,4.60
2022-12-31T13:44:04.652Z,2.28
2022-12-31T13:47:12.716Z,2.67
2022-12-31T13:49:44.532Z,0.52
2022-12-31T13:52:34.542Z,1.55
2022-12-31T13:55:39.486Z,1.25
2022-12-31T13:58:35.341Z,1.92
2022-12-31T14:01:41.054Z,0.38
2022-12-31T14:04:12.917Z,0.30
2022-12-31T14:07:05.445Z,1.70
2022-12-31T14:09:35.017Z,0.77
2022-12-31T14:12:09.491Z,1.45
2022-12-31T14:15:00.807Z,4.68
2022-12-31T14:17:42.335Z,3.85
2022-12-31T14:20:25.196Z,5.78
2022-12-31T14:23:13.565Z,0.57
2022-12-31T14:25:47.770Z,3.22
2022-12-31T14:28:22.164Z,1.08
2022-12-31T14:30:55.336Z,0.88
2022-12-31T14:33:30.163Z,0.40
2022-12-31T14:36:10.751Z,0.57
2022-12-31T14:39:09.544Z,0.43
2022-12-31T14:41:41.710Z,1.95
2022-12-31T14:44:42.036Z,1.48
2022-12-31T14:47:24.000Z,0.50
2022-12-31T14:50:11.600Z,1.15
2022-12-31T14:53:03.621Z,3.75
2022-12-31T14:55:35.709Z,7.18
2022-12-31T15:01:08.979Z,4.97
2022-12-31T15:03:45.801Z,0.98
2022-12-31T15:06:24.672Z,6.25
2022-12-31T15:09:18.316Z,34.13
2022-12-31T15:12:15.661Z,17.83
2022-12-31T15:15:09.539Z,11.25
2022-12-31T15:18:01.010Z,5.28
2022-12-31T15:20:55.539Z,8.53
2022-12-31T15:23:37.870Z,5.05
2022-12-31T15:26:06.169Z,2.85
2022-12-31T15:28:39.791Z,2.97
2022-12-31T15:31:26.927Z,2.83
2022-12-31T15:34:09.545Z,2.17
2022-12-31T15:36:38.965Z,4.93
2022-12-31T15:39:09.826Z,3.17
2022-12-31T15:41:37.458Z,14.27
2022-12-31T15:44:25.883Z,31.25
2022-12-31T15:47:00.397Z,44.80
2022-12-31T15:49:34.851Z,36.58
2022-12-31T15:52:04.628Z,30.50
2022-12-31T15:54:44.793Z,37.75
2022-12-31T15:57:25.828Z,34.55
2022-12-31T15:59:59.599Z,15.07
2022-12-31T16:02:27.962Z,23.13
2022-12-31T16:04:57.933Z,28.98
2022-12-31T16:07:26.351Z,17.83
2022-12-31T16:09:59.532Z,15.88
2022-12-31T16:12:33.220Z,15.93
2022-12-31T16:15:03.328Z,7.22
2022-12-31T16:17:32.680Z,10.93
2022-12-31T16:20:01.065Z,13.15
2022-12-31T16:22:37.303Z,8.73
2022-12-31T16:25:30.593Z,8.15
2022-12-31T16:28:04.642Z,7.30
2022-12-31T16:30:36.314Z,7.93
2022-12-31T16:33:12.687Z,5.57
2022-12-31T16:35:39.089Z,4.70
2022-12-31T16:38:14.976Z,4.50
2022-12-31T16:40:43.592Z,26.80
2022-12-31T16:43:27.682Z,4.20
2022-12-31T16:46:06.894Z,17.02
2022-12-31T16:48:33.402Z,4.82
2022-12-31T16:50:59.875Z,3.83
2022-12-31T16:53:27.959Z,4.15
2022-12-31T16:55:58.445Z,6.32
2022-12-31T16:58:34.473Z,10.90
2022-12-31T17:01:13.915Z,9.88
2022-12-31T17:03:45.353Z,16.15
2022-12-31T17:06:21.505Z,8.73
2022-12-31T17:09:05.271Z,7.70
2022-12-31T17:11:35.638Z,5.72
2022-12-31T17:14:08.121Z,4.60
2022-12-31T17:16:37.164Z,5.97
2022-12-31T17:19:06.761Z,3.60
2022-12-31T17:21:33.467Z,3.83
2022-12-31T17:24:07.032Z,2.55
2022-12-31T17:26:40.472Z,3.88
2022-12-31T17:29:26.218Z,7.22
2022-12-31T17:32:02.543Z,3.28
2022-12-31T17:34:34.119Z,6.10
2022-12-31T17:37:17.616Z,7.05
2022-12-31T17:39:47.818Z,5.95
2022-12-31T17:42:24.213Z,6.18
2022-12-31T17:45:00.872Z,7.43
2022-12-31T17:47:39.042Z,7.55
2022-12-31T17:50:23.742Z,10.63
2022-12-31T17:52:55.261Z,6.60
2022-12-31T17:55:21.747Z,5.30
2022-12-31T17:57:52.241Z,4.88
2022-12-31T18:00:21.069Z,12.90
2022-12-31T18:02:47.726Z,2.83
2022-12-31T18:05:19.191Z,1.85
2022-12-31T18:07:45.934Z,4.00
2022-12-31T18:10:16.873Z,4.13
2022-12-31T18:12:44.704Z,2.65
2022-12-31T18:15:23.437Z,7.72
2022-12-31T18:17:50.004Z,1.95
2022-12-31T18:20:17.118Z,2.45
2022-12-31T18:22:44.692Z,2.05
2022-12-31T18:25:20.434Z,1.42
2022-12-31T18:27:48.035Z,2.17
2022-12-31T18:30:16.541Z,2.10
2022-12-31T18:32:45.197Z,2.33
2022-12-31T18:35:33.302Z,2.60
2022-12-31T18:38:01.472Z,1.65
2022-12-31T18:40:28.445Z,2.80
2022-12-31T18:42:59.668Z,1.45
2022-12-31T18:45:29.258Z,1.65
2022-12-31T18:47:55.843Z,9.98
2022-12-31T18:50:24.432Z,1.98
2022-12-31T18:52:53.440Z,1.75
2022-12-31T18:55:26.168Z,12.05
2022-12-31T18:57:52.871Z,5.75
2022-12-31T19:00:19.501Z,5.30
2022-12-31T19:02:48.182Z,8.98
2022-12-31T19:05:26.319Z,7.50
2022-12-31T19:07:52.974Z,6.07
2022-12-31T19:10:20.159Z,11.38
2022-12-31T19:12:50.527Z,6.47
2022-12-31T19:15:34.991Z,4.25
2022-12-31T19:18:09.695Z,4.22
2022-12-31T19:20:36.144Z,6.18
2022-12-31T19:23:02.518Z,5.75
2022-12-31T19:25:36.346Z,23.77
2022-12-31T19:28:09.418Z,55.05
2022-12-31T19:30:36.441Z,31.63
2022-12-31T19:33:09.742Z,22.63
2022-12-31T19:35:38.431Z,12.73
2022-12-31T19:38:12.709Z,12.52
2022-12-31T19:40:40.244Z,11.65
2022-12-31T19:43:19.685Z,9.30
2022-12-31T19:45:50.438Z,5.53
2022-12-31T19:48:32.351Z,10.10
2022-12-31T19:50:59.796Z,4.85
2022-12-31T19:53:27.377Z,11.60
2022-12-31T19:55:54.351Z,23.33
2022-12-31T19:58:27.925Z,16.73
2022-12-31T20:01:02.038Z,11.25
2022-12-31T20:03:29.936Z,13.02
2022-12-31T20:06:07.554Z,10.45
2022-12-31T20:08:35.359Z,6.07
2022-12-31T20:11:13.247Z,6.90
2022-12-31T20:13:40.947Z,5.32
2022-12-31T20:16:09.323Z,9.10
2022-12-31T20:18:46.761Z,6.65
2022-12-31T20:21:22.204Z,8.73
2022-12-31T20:23:52.566Z,9.65
2022-12-31T20:26:21.405Z,6.63
2022-12-31T20:28:48.078Z,13.50
2022-12-31T20:31:20.918Z,13.85
2022-12-31T20:33:49.755Z,13.50
2022-12-31T20:36:20.692Z,8.30
2022-12-31T20:38:47.513Z,6.38
2022-12-31T20:41:21.884Z,9.65
2022-12-31T20:43:48.667Z,9.43
2022-12-31T20:46:19.307Z,10.93
2022-12-31T20:48:46.795Z,10.73
2022-12-31T20:51:17.143Z,11.30
2022-12-31T20:53:48.585Z,8.20
2022-12-31T20:56:15.294Z,7.72
2022-12-31T20:58:41.840Z,11.20
2022-12-31T21:01:13.644Z,7.53
2022-12-31T21:06:29.435Z,6.40
2022-12-31T21:08:57.745Z,14.00
2022-12-31T21:11:43.179Z,6.55
2022-12-31T21:14:09.851Z,10.70
2022-12-31T21:16:36.489Z,11.02
2022-12-31T21:19:03.034Z,23.40
2022-12-31T21:21:29.718Z,35.72
2022-12-31T21:23:56.243Z,38.30
2022-12-31T21:26:22.755Z,37.72
2022-12-31T21:28:51.550Z,34.97
2022-12-31T21:31:20.423Z,32.90
2022-12-31T21:33:47.761Z,23.77
2022-12-31T21:36:15.697Z,14.60
2022-12-31T21:38:44.760Z,12.18
2022-12-31T21:41:35.049Z,17.23
2022-12-31T21:44:03.322Z,14.43
2022-12-31T21:46:30.510Z,13.32
2022-12-31T21:49:08.796Z,11.23
2022-12-31T21:51:55.200Z,6.88
2022-12-31T21:54:41.639Z,6.68
2022-12-31T21:57:08.507Z,7.90
2022-12-31T22:00:23.955Z,8.20
2022-12-31T22:03:01.519Z,5.65
2022-12-31T22:05:28.127Z,6.13
2022-12-31T22:07:56.857Z,6.00
2022-12-31T22:10:23.314Z,5.63
2022-12-31T22:12:49.839Z,7.57
2022-12-31T22:15:16.435Z,9.50
2022-12-31T22:17:43.012Z,7.15
2022-12-31T22:20:27.213Z,4.80
2022-12-31T22:22:57.082Z,5.85
2022-12-31T22:25:28.594Z,9.70
2022-12-31T22:28:36.277Z,6.57
2022-12-31T22:30:47.439Z,9.45
2022-12-31T22:33:13.891Z,8.50
2022-12-31T22:35:40.525Z,7.93
2022-12-31T22:38:15.805Z,19.60
2022-12-31T22:40:42.385Z,12.77
2022-12-31T22:43:08.752Z,16.08
2022-12-31T22:45:36.483Z,19.75
2022-12-31T22:48:02.866Z,12.43
2022-12-31T22:50:31.661Z,14.05
2022-12-31T22:52:58.193Z,17.15
2022-12-31T22:55:24.557Z,15.32
2022-12-31T22:57:50.996Z,15.73
2022-12-31T23:00:17.449Z,20.33
2022-12-31T23:02:43.989Z,34.10
2022-12-31T23:05:16.113Z,77.13
2022-12-31T23:07:42.937Z,553.25
2022-12-31T23:10:29.383Z,478.30
2022-12-31T23:12:55.804Z,331.20
2022-12-31T23:15:40.835Z,211.23
2022-12-31T23:18:26.033Z,150.20
2022-12-31T23:21:10.996Z,109.13
2022-12-31T23:23:37.436Z,109.00
2022-12-31T23:26:12.295Z,76.78
2022-12-31T23:28:41.926Z,93.35
2022-12-31T23:31:10.586Z,80.63
2022-12-31T23:33:36.986Z,82.13
2022-12-31T23:36:07.206Z,73.07
2022-12-31T23:38:33.807Z,77.53
2022-12-31T23:41:16.914Z,55.92
2022-12-31T23:43:44.063Z,59.60
2022-12-31T23:46:11.878Z,50.75
2022-12-31T23:48:38.271Z,54.90
2022-12-31T23:51:05.394Z,51.75
2022-12-31T23:53:32.025Z,41.45
2022-12-31T23:56:14.910Z,55.38
2022-12-31T23:58:44.694Z,29.20
